sensor_id;sensor_type;location;lat;lon;timestamp;P1;durP1;ratioP1;P2;durP2;ratioP2
27375;SDS011;14844;51.302;6.354;2022-09-30T00:01:38;28.15;;;15.30;;
27375;SDS011;14844;51.302;6.354;2022-09-30T00:04:04;33.33;;;17.17;;
27375;SDS011;14844;51.302;6.354;2022-09-30T00:06:31;23.35;;;14.32;;
27375;SDS011;14844;51.302;6.354;2022-09-30T00:08:59;29.75;;;16.20;;
27375;SDS011;14844;51.302;6.354;2022-09-30T00:11:27;24.92;;;15.07;;
27375;SDS011;14844;51.302;6.354;2022-09-30T00:13:55;27.55;;;17.30;;
27375;SDS011;14844;51.302;6.354;2022-09-30T00:16:22;37.33;;;22.80;;
27375;SDS011;14844;51.302;6.354;2022-09-30T00:18:49;38.40;;;19.73;;
27375;SDS011;14844;51.302;6.354;2022-09-30T00:21:15;26.23;;;17.13;;
27375;SDS011;14844;51.302;6.354;2022-09-30T00:23:41;28.35;;;16.77;;
27375;SDS011;14844;51.302;6.354;2022-09-30T00:26:12;25.23;;;15.75;;
27375;SDS011;14844;51.302;6.354;2022-09-30T00:28:40;24.63;;;15.77;;
27375;SDS011;14844;51.302;6.354;2022-09-30T00:31:07;25.95;;;15.40;;
27375;SDS011;14844;51.302;6.354;2022-09-30T00:33:37;26.23;;;16.20;;
27375;SDS011;14844;51.302;6.354;2022-09-30T00:36:03;23.83;;;16.38;;
27375;SDS011;14844;51.302;6.354;2022-09-30T00:38:29;25.08;;;16.38;;
27375;SDS011;14844;51.302;6.354;2022-09-30T00:40:54;28.00;;;16.27;;
27375;SDS011;14844;51.302;6.354;2022-09-30T00:43:37;23.38;;;15.95;;
27375;SDS011;14844;51.302;6.354;2022-09-30T00:46:17;22.42;;;15.07;;
27375;SDS011;14844;51.302;6.354;2022-09-30T00:48:46;21.60;;;14.73;;
27375;SDS011;14844;51.302;6.354;2022-09-30T00:51:17;29.08;;;16.88;;
27375;SDS011;14844;51.302;6.354;2022-09-30T00:53:53;27.13;;;16.08;;
27375;SDS011;14844;51.302;6.354;2022-09-30T00:56:24;26.63;;;15.68;;
27375;SDS011;14844;51.302;6.354;2022-09-30T00:58:55;24.92;;;14.90;;
27375;SDS011;14844;51.302;6.354;2022-09-30T01:01:26;25.27;;;14.48;;
27375;SDS011;14844;51.302;6.354;2022-09-30T01:03:56;21.70;;;13.90;;
27375;SDS011;14844;51.302;6.354;2022-09-30T01:06:25;23.35;;;13.40;;
27375;SDS011;14844;51.302;6.354;2022-09-30T01:08:51;20.90;;;12.15;;
27375;SDS011;14844;51.302;6.354;2022-09-30T01:11:17;20.70;;;12.30;;
27375;SDS011;14844;51.302;6.354;2022-09-30T01:13:43;19.80;;;13.02;;
27375;SDS011;14844;51.302;6.354;2022-09-30T01:16:34;23.42;;;13.40;;
27375;SDS011;14844;51.302;6.354;2022-09-30T01:38:38;39.30;;;18.60;;
27375;SDS011;14844;51.302;6.354;2022-09-30T01:44:04;25.20;;;15.05;;
27375;SDS011;14844;51.302;6.354;2022-09-30T01:46:55;33.00;;;16.73;;
27375;SDS011;14844;51.302;6.354;2022-09-30T01:49:36;24.27;;;16.25;;
27375;SDS011;14844;51.302;6.354;2022-09-30T01:52:23;27.60;;;16.13;;
27375;SDS011;14844;51.302;6.354;2022-09-30T01:55:07;24.23;;;15.65;;
27375;SDS011;14844;51.302;6.354;2022-09-30T01:57:44;27.30;;;16.23;;
27375;SDS011;14844;51.302;6.354;2022-09-30T02:00:22;46.28;;;21.58;;
27375;SDS011;14844;51.302;6.354;2022-09-30T02:02:50;28.90;;;17.55;;
27375;SDS011;14844;51.302;6.354;2022-09-30T02:08:13;24.95;;;16.80;;
27375;SDS011;14844;51.302;6.354;2022-09-30T02:10:49;28.80;;;15.90;;
27375;SDS011;14844;51.302;6.354;2022-09-30T02:13:23;24.02;;;15.88;;
27375;SDS011;14844;51.302;6.354;2022-09-30T02:15:55;26.45;;;16.15;;
27375;SDS011;14844;51.302;6.354;2022-09-30T02:18:27;23.92;;;15.98;;
27375;SDS011;14844;51.302;6.354;2022-09-30T02:20:59;22.20;;;15.52;;
27375;SDS011;14844;51.302;6.354;2022-09-30T02:23:30;27.23;;;17.73;;
27375;SDS011;14844;51.302;6.354;2022-09-30T02:28:35;28.95;;;17.88;;
27375;SDS011;14844;51.302;6.354;2022-09-30T02:31:07;29.25;;;18.27;;
27375;SDS011;14844;51.302;6.354;2022-09-30T02:33:46;27.73;;;17.33;;
27375;SDS011;14844;51.302;6.354;2022-09-30T02:38:49;26.85;;;17.52;;
27375;SDS011;14844;51.302;6.354;2022-09-30T02:41:26;36.53;;;19.67;;
27375;SDS011;14844;51.302;6.354;2022-09-30T02:43:56;30.83;;;16.38;;
27375;SDS011;14844;51.302;6.354;2022-09-30T02:46:33;26.00;;;16.50;;
27375;SDS011;14844;51.302;6.354;2022-09-30T02:52:06;24.98;;;15.95;;
27375;SDS011;14844;51.302;6.354;2022-09-30T02:55:00;29.30;;;17.75;;
27375;SDS011;14844;51.302;6.354;2022-09-30T03:00:04;29.95;;;17.70;;
27375;SDS011;14844;51.302;6.354;2022-09-30T03:02:31;25.58;;;16.13;;
27375;SDS011;14844;51.302;6.354;2022-09-30T03:04:56;32.47;;;18.65;;
27375;SDS011;14844;51.302;6.354;2022-09-30T03:07:22;24.77;;;17.33;;
27375;SDS011;14844;51.302;6.354;2022-09-30T03:09:48;25.48;;;17.92;;
27375;SDS011;14844;51.302;6.354;2022-09-30T03:12:27;28.65;;;18.55;;
27375;SDS011;14844;51.302;6.354;2022-09-30T03:18:07;28.08;;;18.20;;
27375;SDS011;14844;51.302;6.354;2022-09-30T03:20:57;32.55;;;19.33;;
27375;SDS011;14844;51.302;6.354;2022-09-30T03:23:53;25.47;;;18.00;;
27375;SDS011;14844;51.302;6.354;2022-09-30T03:32:22;34.70;;;21.25;;
27375;SDS011;14844;51.302;6.354;2022-09-30T03:40:07;42.97;;;23.25;;
27375;SDS011;14844;51.302;6.354;2022-09-30T03:42:46;30.63;;;21.25;;
27375;SDS011;14844;51.302;6.354;2022-09-30T03:45:34;31.65;;;21.08;;
27375;SDS011;14844;51.302;6.354;2022-09-30T03:48:08;33.80;;;21.70;;
27375;SDS011;14844;51.302;6.354;2022-09-30T03:50:36;42.50;;;25.08;;
27375;SDS011;14844;51.302;6.354;2022-09-30T03:53:07;28.33;;;19.45;;
27375;SDS011;14844;51.302;6.354;2022-09-30T03:55:42;33.33;;;23.13;;
27375;SDS011;14844;51.302;6.354;2022-09-30T03:58:12;35.95;;;23.35;;
27375;SDS011;14844;51.302;6.354;2022-09-30T04:00:40;33.35;;;23.92;;
27375;SDS011;14844;51.302;6.354;2022-09-30T04:03:11;37.40;;;25.05;;
27375;SDS011;14844;51.302;6.354;2022-09-30T04:05:36;58.03;;;31.38;;
27375;SDS011;14844;51.302;6.354;2022-09-30T04:08:02;46.30;;;26.15;;
27375;SDS011;14844;51.302;6.354;2022-09-30T04:10:28;34.17;;;23.15;;
27375;SDS011;14844;51.302;6.354;2022-09-30T04:12:53;38.25;;;27.20;;
27375;SDS011;14844;51.302;6.354;2022-09-30T04:15:19;36.35;;;24.00;;
27375;SDS011;14844;51.302;6.354;2022-09-30T04:17:45;36.03;;;23.48;;
27375;SDS011;14844;51.302;6.354;2022-09-30T04:20:10;46.33;;;29.63;;
27375;SDS011;14844;51.302;6.354;2022-09-30T04:22:36;31.00;;;22.52;;
27375;SDS011;14844;51.302;6.354;2022-09-30T04:25:02;34.75;;;22.48;;
27375;SDS011;14844;51.302;6.354;2022-09-30T04:27:28;36.50;;;23.48;;
27375;SDS011;14844;51.302;6.354;2022-09-30T04:29:54;35.15;;;24.13;;
27375;SDS011;14844;51.302;6.354;2022-09-30T04:32:23;27.52;;;21.35;;
27375;SDS011;14844;51.302;6.354;2022-09-30T04:34:49;36.55;;;24.33;;
27375;SDS011;14844;51.302;6.354;2022-09-30T04:37:18;30.98;;;22.02;;
27375;SDS011;14844;51.302;6.354;2022-09-30T04:39:43;49.83;;;28.63;;
27375;SDS011;14844;51.302;6.354;2022-09-30T04:42:09;32.50;;;23.83;;
27375;SDS011;14844;51.302;6.354;2022-09-30T04:44:35;31.80;;;22.83;;
27375;SDS011;14844;51.302;6.354;2022-09-30T04:47:00;36.70;;;23.63;;
27375;SDS011;14844;51.302;6.354;2022-09-30T04:49:26;34.00;;;22.25;;
27375;SDS011;14844;51.302;6.354;2022-09-30T04:51:52;35.13;;;24.60;;
27375;SDS011;14844;51.302;6.354;2022-09-30T04:54:17;47.50;;;27.75;;
27375;SDS011;14844;51.302;6.354;2022-09-30T04:56:43;32.95;;;23.00;;
27375;SDS011;14844;51.302;6.354;2022-09-30T04:59:08;31.98;;;21.85;;
27375;SDS011;14844;51.302;6.354;2022-09-30T05:01:34;40.33;;;25.25;;
27375;SDS011;14844;51.302;6.354;2022-09-30T05:04:00;39.47;;;24.35;;
27375;SDS011;14844;51.302;6.354;2022-09-30T05:06:26;32.47;;;23.88;;
27375;SDS011;14844;51.302;6.354;2022-09-30T05:08:51;42.22;;;26.20;;
27375;SDS011;14844;51.302;6.354;2022-09-30T05:11:18;45.85;;;27.27;;
27375;SDS011;14844;51.302;6.354;2022-09-30T05:13:45;46.95;;;28.10;;
27375;SDS011;14844;51.302;6.354;2022-09-30T05:16:11;50.42;;;30.02;;
27375;SDS011;14844;51.302;6.354;2022-09-30T05:18:37;38.78;;;24.38;;
27375;SDS011;14844;51.302;6.354;2022-09-30T05:21:09;52.63;;;28.95;;
27375;SDS011;14844;51.302;6.354;2022-09-30T05:23:36;47.85;;;29.33;;
27375;SDS011;14844;51.302;6.354;2022-09-30T05:26:02;46.25;;;28.30;;
27375;SDS011;14844;51.302;6.354;2022-09-30T05:28:28;72.10;;;35.85;;
27375;SDS011;14844;51.302;6.354;2022-09-30T05:30:59;39.92;;;28.15;;
27375;SDS011;14844;51.302;6.354;2022-09-30T05:33:26;50.80;;;30.58;;
27375;SDS011;14844;51.302;6.354;2022-09-30T05:35:59;40.33;;;27.42;;
27375;SDS011;14844;51.302;6.354;2022-09-30T05:38:26;56.23;;;32.17;;
27375;SDS011;14844;51.302;6.354;2022-09-30T05:40:52;47.08;;;30.10;;
27375;SDS011;14844;51.302;6.354;2022-09-30T05:43:18;77.60;;;40.42;;
27375;SDS011;14844;51.302;6.354;2022-09-30T05:45:50;54.83;;;33.35;;
27375;SDS011;14844;51.302;6.354;2022-09-30T05:48:19;64.47;;;37.90;;
27375;SDS011;14844;51.302;6.354;2022-09-30T05:50:45;64.25;;;37.88;;
27375;SDS011;14844;51.302;6.354;2022-09-30T05:53:14;72.78;;;38.45;;
27375;SDS011;14844;51.302;6.354;2022-09-30T05:55:43;61.63;;;33.90;;
27375;SDS011;14844;51.302;6.354;2022-09-30T05:58:10;70.78;;;37.92;;
27375;SDS011;14844;51.302;6.354;2022-09-30T06:00:38;57.85;;;35.65;;
27375;SDS011;14844;51.302;6.354;2022-09-30T06:03:05;62.42;;;36.45;;
27375;SDS011;14844;51.302;6.354;2022-09-30T06:05:31;63.20;;;35.65;;
27375;SDS011;14844;51.302;6.354;2022-09-30T06:07:56;69.68;;;37.22;;
27375;SDS011;14844;51.302;6.354;2022-09-30T06:10:22;63.83;;;34.78;;
27375;SDS011;14844;51.302;6.354;2022-09-30T06:12:48;47.00;;;30.77;;
27375;SDS011;14844;51.302;6.354;2022-09-30T06:15:13;67.30;;;35.85;;
27375;SDS011;14844;51.302;6.354;2022-09-30T06:17:39;68.68;;;35.30;;
27375;SDS011;14844;51.302;6.354;2022-09-30T06:20:07;69.32;;;36.00;;
27375;SDS011;14844;51.302;6.354;2022-09-30T06:22:34;79.68;;;39.05;;
27375;SDS011;14844;51.302;6.354;2022-09-30T06:25:05;43.35;;;29.60;;
27375;SDS011;14844;51.302;6.354;2022-09-30T06:27:32;51.10;;;33.08;;
27375;SDS011;14844;51.302;6.354;2022-09-30T06:29:58;72.43;;;40.63;;
27375;SDS011;14844;51.302;6.354;2022-09-30T06:32:24;56.70;;;33.25;;
27375;SDS011;14844;51.302;6.354;2022-09-30T06:34:50;66.93;;;40.28;;
27375;SDS011;14844;51.302;6.354;2022-09-30T06:37:16;69.60;;;41.25;;
27375;SDS011;14844;51.302;6.354;2022-09-30T06:39:42;77.85;;;43.60;;
27375;SDS011;14844;51.302;6.354;2022-09-30T06:42:08;85.00;;;45.17;;
27375;SDS011;14844;51.302;6.354;2022-09-30T06:44:35;82.75;;;45.40;;
27375;SDS011;14844;51.302;6.354;2022-09-30T06:47:00;69.35;;;43.50;;
27375;SDS011;14844;51.302;6.354;2022-09-30T06:49:26;73.03;;;43.72;;
27375;SDS011;14844;51.302;6.354;2022-09-30T06:51:52;70.00;;;43.90;;
27375;SDS011;14844;51.302;6.354;2022-09-30T06:54:17;68.95;;;44.78;;
27375;SDS011;14844;51.302;6.354;2022-09-30T06:56:45;64.80;;;41.40;;
27375;SDS011;14844;51.302;6.354;2022-09-30T06:59:11;59.20;;;40.75;;
27375;SDS011;14844;51.302;6.354;2022-09-30T07:01:38;60.63;;;40.42;;
27375;SDS011;14844;51.302;6.354;2022-09-30T07:04:03;63.38;;;41.25;;
27375;SDS011;14844;51.302;6.354;2022-09-30T07:06:33;62.47;;;40.72;;
27375;SDS011;14844;51.302;6.354;2022-09-30T07:08:59;61.30;;;40.30;;
27375;SDS011;14844;51.302;6.354;2022-09-30T07:11:24;59.55;;;40.92;;
27375;SDS011;14844;51.302;6.354;2022-09-30T07:13:50;61.63;;;41.22;;
27375;SDS011;14844;51.302;6.354;2022-09-30T07:16:17;55.05;;;39.55;;
27375;SDS011;14844;51.302;6.354;2022-09-30T07:18:43;62.63;;;39.55;;
27375;SDS011;14844;51.302;6.354;2022-09-30T07:21:09;56.92;;;39.35;;
27375;SDS011;14844;51.302;6.354;2022-09-30T07:23:37;58.10;;;38.03;;
27375;SDS011;14844;51.302;6.354;2022-09-30T07:26:05;50.40;;;37.00;;
27375;SDS011;14844;51.302;6.354;2022-09-30T07:28:32;52.25;;;37.35;;
27375;SDS011;14844;51.302;6.354;2022-09-30T07:31:00;49.10;;;35.78;;
27375;SDS011;14844;51.302;6.354;2022-09-30T07:33:30;47.50;;;34.42;;
27375;SDS011;14844;51.302;6.354;2022-09-30T07:35:57;46.60;;;31.90;;
27375;SDS011;14844;51.302;6.354;2022-09-30T07:38:26;40.47;;;30.98;;
27375;SDS011;14844;51.302;6.354;2022-09-30T07:40:55;38.65;;;28.83;;
27375;SDS011;14844;51.302;6.354;2022-09-30T07:43:32;41.70;;;28.92;;
27375;SDS011;14844;51.302;6.354;2022-09-30T07:46:06;41.67;;;28.55;;
27375;SDS011;14844;51.302;6.354;2022-09-30T07:48:53;42.08;;;28.30;;
27375;SDS011;14844;51.302;6.354;2022-09-30T07:53:50;35.28;;;25.90;;
27375;SDS011;14844;51.302;6.354;2022-09-30T07:56:21;32.95;;;24.63;;
27375;SDS011;14844;51.302;6.354;2022-09-30T07:58:48;36.15;;;25.02;;
27375;SDS011;14844;51.302;6.354;2022-09-30T08:01:17;38.13;;;24.13;;
27375;SDS011;14844;51.302;6.354;2022-09-30T08:03:42;32.60;;;23.77;;
27375;SDS011;14844;51.302;6.354;2022-09-30T08:06:12;32.03;;;22.92;;
27375;SDS011;14844;51.302;6.354;2022-09-30T08:08:40;30.60;;;23.50;;
27375;SDS011;14844;51.302;6.354;2022-09-30T08:11:08;33.80;;;22.48;;
27375;SDS011;14844;51.302;6.354;2022-09-30T08:13:34;31.92;;;22.77;;
27375;SDS011;14844;51.302;6.354;2022-09-30T08:15:59;29.80;;;23.20;;
27375;SDS011;14844;51.302;6.354;2022-09-30T08:18:25;29.10;;;23.27;;
27375;SDS011;14844;51.302;6.354;2022-09-30T08:20:51;29.08;;;22.60;;
27375;SDS011;14844;51.302;6.354;2022-09-30T08:23:17;30.05;;;22.63;;
27375;SDS011;14844;51.302;6.354;2022-09-30T08:25:42;34.22;;;22.38;;
27375;SDS011;14844;51.302;6.354;2022-09-30T08:28:08;31.13;;;22.92;;
27375;SDS011;14844;51.302;6.354;2022-09-30T08:30:34;32.28;;;23.08;;
27375;SDS011;14844;51.302;6.354;2022-09-30T08:33:00;29.25;;;22.48;;
27375;SDS011;14844;51.302;6.354;2022-09-30T08:35:26;33.03;;;22.52;;
27375;SDS011;14844;51.302;6.354;2022-09-30T08:37:51;33.63;;;22.17;;
27375;SDS011;14844;51.302;6.354;2022-09-30T08:40:22;33.60;;;23.33;;
27375;SDS011;14844;51.302;6.354;2022-09-30T08:48:31;27.98;;;21.98;;
27375;SDS011;14844;51.302;6.354;2022-09-30T08:53:46;27.60;;;21.38;;
27375;SDS011;14844;51.302;6.354;2022-09-30T08:56:19;31.75;;;22.17;;
27375;SDS011;14844;51.302;6.354;2022-09-30T08:58:55;25.75;;;20.02;;
27375;SDS011;14844;51.302;6.354;2022-09-30T09:01:33;26.75;;;21.02;;
27375;SDS011;14844;51.302;6.354;2022-09-30T09:04:02;29.58;;;20.92;;
27375;SDS011;14844;51.302;6.354;2022-09-30T09:06:48;27.17;;;21.13;;
27375;SDS011;14844;51.302;6.354;2022-09-30T09:09:35;24.70;;;19.42;;
27375;SDS011;14844;51.302;6.354;2022-09-30T09:18:28;23.27;;;18.13;;
27375;SDS011;14844;51.302;6.354;2022-09-30T09:23:50;24.33;;;18.63;;
27375;SDS011;14844;51.302;6.354;2022-09-30T09:26:18;27.27;;;18.80;;
27375;SDS011;14844;51.302;6.354;2022-09-30T09:28:47;25.75;;;17.85;;
27375;SDS011;14844;51.302;6.354;2022-09-30T09:31:36;22.70;;;17.35;;
27375;SDS011;14844;51.302;6.354;2022-09-30T09:34:09;20.80;;;17.20;;
27375;SDS011;14844;51.302;6.354;2022-09-30T09:42:26;20.90;;;16.80;;
27375;SDS011;14844;51.302;6.354;2022-09-30T09:47:34;21.02;;;16.58;;
27375;SDS011;14844;51.302;6.354;2022-09-30T09:50:01;20.98;;;16.77;;
27375;SDS011;14844;51.302;6.354;2022-09-30T09:52:34;23.27;;;16.67;;
27375;SDS011;14844;51.302;6.354;2022-09-30T09:55:11;22.23;;;15.18;;
27375;SDS011;14844;51.302;6.354;2022-09-30T09:57:38;22.02;;;15.07;;
27375;SDS011;14844;51.302;6.354;2022-09-30T10:00:06;21.70;;;14.93;;
27375;SDS011;14844;51.302;6.354;2022-09-30T10:05:28;26.15;;;15.43;;
27375;SDS011;14844;51.302;6.354;2022-09-30T10:08:09;20.95;;;15.30;;
27375;SDS011;14844;51.302;6.354;2022-09-30T10:10:43;20.73;;;14.88;;
27375;SDS011;14844;51.302;6.354;2022-09-30T10:13:14;21.65;;;14.05;;
27375;SDS011;14844;51.302;6.354;2022-09-30T10:15:41;19.25;;;14.35;;
27375;SDS011;14844;51.302;6.354;2022-09-30T10:18:18;18.35;;;13.75;;
27375;SDS011;14844;51.302;6.354;2022-09-30T10:20:52;20.88;;;14.85;;
27375;SDS011;14844;51.302;6.354;2022-09-30T10:23:26;17.02;;;12.90;;
27375;SDS011;14844;51.302;6.354;2022-09-30T10:28:46;15.93;;;12.98;;
27375;SDS011;14844;51.302;6.354;2022-09-30T10:39:22;17.48;;;11.88;;
27375;SDS011;14844;51.302;6.354;2022-09-30T10:42:06;16.80;;;11.80;;
27375;SDS011;14844;51.302;6.354;2022-09-30T10:44:44;19.05;;;11.73;;
27375;SDS011;14844;51.302;6.354;2022-09-30T10:47:13;16.13;;;9.90;;
27375;SDS011;14844;51.302;6.354;2022-09-30T10:52:31;14.68;;;10.68;;
27375;SDS011;14844;51.302;6.354;2022-09-30T10:57:44;17.08;;;10.32;;
27375;SDS011;14844;51.302;6.354;2022-09-30T11:00:12;10.57;;;8.75;;
27375;SDS011;14844;51.302;6.354;2022-09-30T11:05:33;13.30;;;8.15;;
27375;SDS011;14844;51.302;6.354;2022-09-30T11:15:56;9.32;;;6.63;;
27375;SDS011;14844;51.302;6.354;2022-09-30T11:18:42;9.45;;;6.40;;
27375;SDS011;14844;51.302;6.354;2022-09-30T11:21:17;10.20;;;6.10;;
27375;SDS011;14844;51.302;6.354;2022-09-30T11:23:52;14.20;;;7.38;;
27375;SDS011;14844;51.302;6.354;2022-09-30T11:34:16;8.10;;;5.88;;
27375;SDS011;14844;51.302;6.354;2022-09-30T11:39:59;10.05;;;5.40;;
27375;SDS011;14844;51.302;6.354;2022-09-30T11:42:56;7.13;;;5.00;;
27375;SDS011;14844;51.302;6.354;2022-09-30T11:51:09;8.02;;;5.30;;
27375;SDS011;14844;51.302;6.354;2022-09-30T11:54:05;8.35;;;4.50;;
27375;SDS011;14844;51.302;6.354;2022-09-30T11:56:45;8.32;;;4.63;;
27375;SDS011;14844;51.302;6.354;2022-09-30T11:59:21;6.63;;;4.28;;
27375;SDS011;14844;51.302;6.354;2022-09-30T12:01:57;7.82;;;4.13;;
27375;SDS011;14844;51.302;6.354;2022-09-30T12:04:30;6.90;;;3.97;;
27375;SDS011;14844;51.302;6.354;2022-09-30T12:09:41;6.60;;;3.80;;
27375;SDS011;14844;51.302;6.354;2022-09-30T12:12:11;8.18;;;4.32;;
27375;SDS011;14844;51.302;6.354;2022-09-30T12:14:41;7.72;;;4.18;;
27375;SDS011;14844;51.302;6.354;2022-09-30T12:19:57;6.70;;;3.50;;
27375;SDS011;14844;51.302;6.354;2022-09-30T12:22:29;5.28;;;3.15;;
27375;SDS011;14844;51.302;6.354;2022-09-30T12:25:14;7.57;;;3.50;;
27375;SDS011;14844;51.302;6.354;2022-09-30T12:27:52;6.50;;;3.10;;
27375;SDS011;14844;51.302;6.354;2022-09-30T12:30:55;14.38;;;3.50;;
27375;SDS011;14844;51.302;6.354;2022-09-30T12:47:16;6.45;;;3.33;;
27375;SDS011;14844;51.302;6.354;2022-09-30T12:49:45;8.50;;;4.00;;
27375;SDS011;14844;51.302;6.354;2022-09-30T12:52:13;7.28;;;3.72;;
27375;SDS011;14844;51.302;6.354;2022-09-30T12:55:03;5.53;;;3.13;;
27375;SDS011;14844;51.302;6.354;2022-09-30T12:57:33;10.95;;;2.80;;
27375;SDS011;14844;51.302;6.354;2022-09-30T13:00:05;7.20;;;2.85;;
27375;SDS011;14844;51.302;6.354;2022-09-30T13:02:40;4.65;;;2.92;;
27375;SDS011;14844;51.302;6.354;2022-09-30T13:10:30;4.50;;;2.97;;
27375;SDS011;14844;51.302;6.354;2022-09-30T13:15:48;6.90;;;2.90;;
27375;SDS011;14844;51.302;6.354;2022-09-30T13:20:50;8.30;;;3.33;;
27375;SDS011;14844;51.302;6.354;2022-09-30T13:31:29;5.15;;;3.28;;
27375;SDS011;14844;51.302;6.354;2022-09-30T13:41:45;9.85;;;4.07;;
27375;SDS011;14844;51.302;6.354;2022-09-30T13:44:20;8.70;;;3.53;;
27375;SDS011;14844;51.302;6.354;2022-09-30T13:46:58;5.28;;;3.20;;
27375;SDS011;14844;51.302;6.354;2022-09-30T13:49:42;6.57;;;2.85;;
27375;SDS011;14844;51.302;6.354;2022-09-30T13:52:34;8.02;;;2.80;;
27375;SDS011;14844;51.302;6.354;2022-09-30T13:55:07;3.70;;;1.90;;
27375;SDS011;14844;51.302;6.354;2022-09-30T13:57:48;6.32;;;2.28;;
27375;SDS011;14844;51.302;6.354;2022-09-30T14:00:17;5.60;;;2.17;;
27375;SDS011;14844;51.302;6.354;2022-09-30T14:16:56;8.00;;;1.70;;
27375;SDS011;14844;51.302;6.354;2022-09-30T14:22:01;8.07;;;1.50;;
27375;SDS011;14844;51.302;6.354;2022-09-30T14:24:32;4.47;;;1.70;;
27375;SDS011;14844;51.302;6.354;2022-09-30T14:32:33;4.97;;;1.30;;
27375;SDS011;14844;51.302;6.354;2022-09-30T14:35:29;5.43;;;1.33;;
27375;SDS011;14844;51.302;6.354;2022-09-30T14:38:18;2.40;;;1.20;;
27375;SDS011;14844;51.302;6.354;2022-09-30T14:40:50;3.53;;;1.00;;
27375;SDS011;14844;51.302;6.354;2022-09-30T14:43:19;8.73;;;1.30;;
27375;SDS011;14844;51.302;6.354;2022-09-30T14:45:50;3.22;;;1.60;;
27375;SDS011;14844;51.302;6.354;2022-09-30T14:48:20;3.17;;;1.00;;
27375;SDS011;14844;51.302;6.354;2022-09-30T14:50:59;2.50;;;0.93;;
27375;SDS011;14844;51.302;6.354;2022-09-30T14:53:30;2.28;;;0.82;;
27375;SDS011;14844;51.302;6.354;2022-09-30T14:55:58;2.25;;;0.85;;
27375;SDS011;14844;51.302;6.354;2022-09-30T14:58:26;5.25;;;0.80;;
27375;SDS011;14844;51.302;6.354;2022-09-30T15:01:04;2.92;;;0.90;;
27375;SDS011;14844;51.302;6.354;2022-09-30T15:03:39;3.05;;;0.80;;
27375;SDS011;14844;51.302;6.354;2022-09-30T15:06:15;2.00;;;0.85;;
27375;SDS011;14844;51.302;6.354;2022-09-30T15:08:45;2.92;;;1.20;;
27375;SDS011;14844;51.302;6.354;2022-09-30T15:11:19;5.10;;;0.90;;
27375;SDS011;14844;51.302;6.354;2022-09-30T15:13:56;2.78;;;0.80;;
27375;SDS011;14844;51.302;6.354;2022-09-30T15:16:27;3.75;;;1.48;;
27375;SDS011;14844;51.302;6.354;2022-09-30T15:18:54;2.08;;;0.80;;
27375;SDS011;14844;51.302;6.354;2022-09-30T15:21:20;3.20;;;1.10;;
27375;SDS011;14844;51.302;6.354;2022-09-30T15:23:48;3.10;;;0.90;;
27375;SDS011;14844;51.302;6.354;2022-09-30T15:26:22;1.77;;;0.80;;
27375;SDS011;14844;51.302;6.354;2022-09-30T15:28:49;2.20;;;1.20;;
27375;SDS011;14844;51.302;6.354;2022-09-30T15:31:26;3.08;;;1.25;;
27375;SDS011;14844;51.302;6.354;2022-09-30T15:34:26;2.22;;;0.73;;
27375;SDS011;14844;51.302;6.354;2022-09-30T15:36:46;4.40;;;0.80;;
27375;SDS011;14844;51.302;6.354;2022-09-30T15:39:21;3.97;;;0.75;;
27375;SDS011;14844;51.302;6.354;2022-09-30T15:42:11;2.63;;;1.05;;
27375;SDS011;14844;51.302;6.354;2022-09-30T15:44:38;3.35;;;0.70;;
27375;SDS011;14844;51.302;6.354;2022-09-30T15:47:06;4.78;;;0.70;;
27375;SDS011;14844;51.302;6.354;2022-09-30T15:54:52;2.38;;;0.60;;
27375;SDS011;14844;51.302;6.354;2022-09-30T16:00:04;4.68;;;0.82;;
27375;SDS011;14844;51.302;6.354;2022-09-30T16:02:32;1.77;;;0.90;;
27375;SDS011;14844;51.302;6.354;2022-09-30T16:04:59;2.90;;;0.95;;
27375;SDS011;14844;51.302;6.354;2022-09-30T16:07:26;4.95;;;0.85;;
27375;SDS011;14844;51.302;6.354;2022-09-30T16:09:54;4.53;;;0.73;;
27375;SDS011;14844;51.302;6.354;2022-09-30T16:12:22;1.42;;;0.68;;
27375;SDS011;14844;51.302;6.354;2022-09-30T16:15:06;1.85;;;0.70;;
27375;SDS011;14844;51.302;6.354;2022-09-30T16:17:38;3.25;;;0.80;;
27375;SDS011;14844;51.302;6.354;2022-09-30T16:27:34;2.33;;;0.77;;
27375;SDS011;14844;51.302;6.354;2022-09-30T16:30:01;3.92;;;0.93;;
27375;SDS011;14844;51.302;6.354;2022-09-30T16:32:29;3.35;;;1.20;;
27375;SDS011;14844;51.302;6.354;2022-09-30T16:34:58;2.92;;;1.63;;
27375;SDS011;14844;51.302;6.354;2022-09-30T16:37:23;2.72;;;1.10;;
27375;SDS011;14844;51.302;6.354;2022-09-30T16:39:49;4.32;;;1.10;;
27375;SDS011;14844;51.302;6.354;2022-09-30T16:42:15;1.95;;;0.90;;
27375;SDS011;14844;51.302;6.354;2022-09-30T16:44:42;3.97;;;1.08;;
27375;SDS011;14844;51.302;6.354;2022-09-30T16:47:11;5.07;;;1.10;;
27375;SDS011;14844;51.302;6.354;2022-09-30T16:49:41;1.65;;;0.80;;
27375;SDS011;14844;51.302;6.354;2022-09-30T16:52:08;2.88;;;0.70;;
27375;SDS011;14844;51.302;6.354;2022-09-30T16:54:35;2.05;;;0.80;;
27375;SDS011;14844;51.302;6.354;2022-09-30T16:57:01;2.50;;;1.00;;
27375;SDS011;14844;51.302;6.354;2022-09-30T16:59:26;3.40;;;1.10;;
27375;SDS011;14844;51.302;6.354;2022-09-30T17:01:52;3.05;;;0.95;;
27375;SDS011;14844;51.302;6.354;2022-09-30T17:04:17;4.57;;;1.00;;
27375;SDS011;14844;51.302;6.354;2022-09-30T17:06:43;5.55;;;1.15;;
27375;SDS011;14844;51.302;6.354;2022-09-30T17:09:08;5.25;;;1.88;;
27375;SDS011;14844;51.302;6.354;2022-09-30T17:11:34;2.10;;;1.08;;
27375;SDS011;14844;51.302;6.354;2022-09-30T17:14:01;3.60;;;1.40;;
27375;SDS011;14844;51.302;6.354;2022-09-30T17:16:28;6.35;;;1.42;;
27375;SDS011;14844;51.302;6.354;2022-09-30T17:18:53;2.63;;;1.33;;
27375;SDS011;14844;51.302;6.354;2022-09-30T17:21:20;3.92;;;1.30;;
27375;SDS011;14844;51.302;6.354;2022-09-30T17:23:47;4.15;;;1.27;;
27375;SDS011;14844;51.302;6.354;2022-09-30T17:26:13;3.83;;;1.33;;
27375;SDS011;14844;51.302;6.354;2022-09-30T17:28:39;4.68;;;1.67;;
27375;SDS011;14844;51.302;6.354;2022-09-30T17:31:04;7.13;;;4.03;;
27375;SDS011;14844;51.302;6.354;2022-09-30T17:33:32;12.05;;;5.25;;
27375;SDS011;14844;51.302;6.354;2022-09-30T17:36:03;10.02;;;5.47;;
27375;SDS011;14844;51.302;6.354;2022-09-30T17:38:30;13.38;;;5.90;;
27375;SDS011;14844;51.302;6.354;2022-09-30T17:40:56;12.65;;;6.55;;
27375;SDS011;14844;51.302;6.354;2022-09-30T17:43:41;8.30;;;5.05;;
27375;SDS011;14844;51.302;6.354;2022-09-30T17:46:06;8.10;;;3.75;;
27375;SDS011;14844;51.302;6.354;2022-09-30T17:48:32;12.23;;;5.25;;
27375;SDS011;14844;51.302;6.354;2022-09-30T17:50:57;20.08;;;7.60;;
27375;SDS011;14844;51.302;6.354;2022-09-30T17:53:24;30.40;;;13.30;;
27375;SDS011;14844;51.302;6.354;2022-09-30T17:56:06;40.88;;;17.45;;
27375;SDS011;14844;51.302;6.354;2022-09-30T17:58:40;32.58;;;10.95;;
27375;SDS011;14844;51.302;6.354;2022-09-30T18:01:14;31.23;;;14.75;;
27375;SDS011;14844;51.302;6.354;2022-09-30T18:03:46;26.58;;;12.52;;
27375;SDS011;14844;51.302;6.354;2022-09-30T18:06:16;17.17;;;9.13;;
27375;SDS011;14844;51.302;6.354;2022-09-30T18:08:46;15.35;;;8.35;;
27375;SDS011;14844;51.302;6.354;2022-09-30T18:11:17;14.85;;;7.57;;
27375;SDS011;14844;51.302;6.354;2022-09-30T18:13:53;8.93;;;4.93;;
27375;SDS011;14844;51.302;6.354;2022-09-30T18:16:22;7.50;;;4.25;;
27375;SDS011;14844;51.302;6.354;2022-09-30T18:18:48;6.22;;;3.40;;
27375;SDS011;14844;51.302;6.354;2022-09-30T18:21:14;5.93;;;2.85;;